Calmar, Canada
Current Conditions -  °F | °C
As of 11:00 AM on Sunday 25 Jan 2015 (Local Time) from CYEG Reporting Station
Broken Clouds Broken Clouds  
Wind Chill: 34°   Ceiling: 11000
Heat Index: 39°   Visibility: 15mi
Dew Point: 30°   Wind: 8mph
Humidity: 70%   Direction: 250°WSW
Pressure: 29.71"   Gusts: NA
Location:  53.25°N, 113.78°W
Report Text: CYEG 251800Z 25007KT 15SM FEW060 BKN110 BKN150 04/M01 A2971 RMK SC1AC5AC1 SLP085
Loading
Personal Weather Stations






























Interactive Weather Map New forecast layout! Learn more

10-Day Weather Forecast

Advertisements
Track Severe Weather on mobile